createdAt,value
2022-08-05T00:02:23.074Z,54.60
2022-08-05T00:07:59.663Z,54.53
2022-08-05T00:12:55.738Z,54.80
2022-08-05T00:17:59.772Z,54.94
2022-08-05T00:23:12.717Z,55.27
2022-08-05T00:28:16.217Z,55.33
2022-08-05T00:34:55.424Z,55.12
2022-08-05T00:38:57.202Z,55.98
2022-08-05T00:44:03.067Z,55.87
2022-08-05T00:49:06.075Z,56.64
2022-08-05T00:54:13.187Z,56.52
2022-08-05T00:59:15.973Z,57.08
2022-08-05T01:04:20.293Z,57.25
2022-08-05T01:09:30.454Z,57.10
2022-08-05T01:14:40.714Z,57.55
2022-08-05T01:20:03.419Z,58.27
2022-08-05T01:25:20.908Z,58.07
2022-08-05T01:30:34.130Z,58.37
2022-08-05T01:35:51.540Z,58.04
2022-08-05T01:40:59.563Z,58.16
2022-08-05T01:46:07.350Z,58.50
2022-08-05T01:51:21.977Z,58.76
2022-08-05T01:58:09.566Z,58.81
2022-08-05T02:02:00.764Z,58.44
2022-08-05T02:07:04.245Z,58.19
2022-08-05T02:12:25.349Z,57.82
2022-08-05T02:18:30.687Z,58.11
2022-08-05T02:23:12.000Z,57.97
2022-08-05T02:28:29.258Z,57.85
2022-08-05T02:33:48.455Z,58.27
2022-08-05T02:38:55.110Z,58.16
2022-08-05T02:44:06.185Z,57.99
2022-08-05T02:49:17.091Z,58.10
2022-08-05T02:54:35.755Z,58.14
2022-08-05T02:59:48.101Z,58.75
2022-08-05T03:04:56.597Z,58.41
2022-08-05T03:09:59.659Z,58.89
2022-08-05T03:15:04.429Z,58.85
2022-08-05T03:20:10.602Z,58.92
2022-08-05T03:26:03.718Z,59.07
2022-08-05T03:30:43.357Z,59.77
2022-08-05T03:35:48.000Z,60.01
2022-08-05T03:40:52.783Z,59.75
2022-08-05T03:45:58.678Z,60.27
2022-08-05T03:52:38.612Z,60.11
2022-08-05T03:56:46.691Z,59.96
2022-08-05T04:01:52.355Z,60.58
2022-08-05T04:06:56.059Z,60.16
2022-08-05T04:11:59.930Z,60.25
2022-08-05T04:17:03.919Z,60.33
2022-08-05T04:22:12.082Z,60.50
2022-08-05T04:27:15.457Z,60.65
2022-08-05T04:32:30.561Z,60.80
2022-08-05T04:38:01.191Z,60.45
2022-08-05T04:42:59.888Z,60.13
2022-08-05T04:48:16.317Z,60.14
2022-08-05T04:53:21.479Z,59.38
2022-08-05T04:58:24.463Z,58.75
2022-08-05T05:03:29.190Z,58.66
2022-08-05T05:08:44.814Z,57.60
2022-08-05T05:13:52.860Z,57.13
2022-08-05T05:19:19.023Z,56.02
2022-08-05T05:24:21.852Z,55.33
2022-08-05T05:29:24.589Z,54.11
2022-08-05T05:34:47.373Z,54.07
2022-08-05T05:39:50.325Z,53.30
2022-08-05T05:44:53.076Z,52.09
2022-08-05T05:50:04.233Z,50.07
2022-08-05T05:55:13.364Z,49.50
2022-08-05T06:00:21.896Z,49.28
2022-08-05T06:05:34.483Z,49.25
2022-08-05T06:10:44.249Z,48.55
2022-08-05T06:16:29.446Z,48.35
2022-08-05T06:21:19.044Z,47.62
2022-08-05T06:26:24.909Z,47.64
2022-08-05T06:31:32.236Z,45.82
2022-08-05T06:36:53.459Z,44.48
2022-08-05T06:42:04.126Z,45.07
2022-08-05T06:47:10.317Z,42.79
2022-08-05T06:52:37.067Z,42.79
2022-08-05T06:58:02.630Z,41.93
2022-08-05T07:03:04.936Z,41.47
2022-08-05T07:08:12.497Z,40.97
2022-08-05T07:13:59.871Z,39.82
2022-08-05T07:19:03.029Z,39.87
2022-08-05T07:24:11.226Z,39.05
2022-08-05T07:29:16.003Z,37.90
2022-08-05T07:34:25.195Z,37.58
2022-08-05T07:40:26.887Z,36.77
2022-08-05T07:44:54.289Z,36.26
2022-08-05T07:49:58.323Z,36.08
2022-08-05T07:55:02.492Z,35.77
2022-08-05T08:00:11.400Z,35.22
2022-08-05T08:05:15.627Z,35.60
2022-08-05T08:10:20.974Z,35.43
2022-08-05T08:15:37.311Z,35.78
2022-08-05T08:21:02.713Z,35.22
2022-08-05T08:26:07.609Z,34.16
2022-08-05T08:31:15.101Z,34.24
2022-08-05T08:36:29.648Z,33.57
2022-08-05T08:41:51.180Z,33.80
2022-08-05T08:46:56.479Z,33.42
2022-08-05T08:52:19.841Z,32.34
2022-08-05T08:57:23.950Z,31.30
2022-08-05T09:02:46.514Z,31.28
2022-08-05T09:07:57.348Z,29.82
2022-08-05T09:13:05.300Z,29.60
2022-08-05T09:18:10.050Z,30.21
2022-08-05T09:23:21.790Z,29.32
2022-08-05T09:28:31.857Z,29.51
2022-08-05T09:33:51.857Z,28.47
2022-08-05T09:39:03.190Z,28.38
2022-08-05T09:44:06.115Z,27.30
2022-08-05T09:49:40.462Z,27.10
2022-08-05T09:55:56.197Z,27.37
2022-08-05T10:00:35.171Z,27.05
2022-08-05T10:05:38.866Z,25.77
2022-08-05T10:10:44.709Z,26.86
2022-08-05T10:15:47.678Z,26.29
2022-08-05T10:20:57.039Z,25.52
2022-08-05T10:26:07.020Z,25.79
2022-08-05T10:33:01.071Z,26.06
2022-08-05T10:36:40.532Z,24.60
2022-08-05T10:42:08.139Z,24.30
2022-08-05T10:47:26.055Z,24.27
2022-08-05T10:52:54.036Z,23.97
2022-08-05T10:58:14.915Z,24.81
2022-08-05T11:03:24.699Z,23.84
2022-08-05T11:08:37.196Z,23.81
2022-08-05T11:13:55.127Z,23.79
2022-08-05T11:20:10.501Z,23.41
2022-08-05T11:26:04.993Z,23.75
2022-08-05T11:30:58.439Z,22.96
2022-08-05T11:36:08.962Z,22.24
2022-08-05T11:41:54.366Z,22.31
2022-08-05T11:46:58.464Z,22.73
2022-08-05T11:52:15.066Z,22.53
2022-08-05T11:57:25.659Z,21.98
2022-08-05T12:02:36.126Z,21.85
2022-08-05T12:08:09.255Z,20.86
2022-08-05T12:13:15.953Z,21.08
2022-08-05T12:18:33.262Z,21.07
2022-08-05T12:23:36.369Z,21.00
2022-08-05T12:28:46.455Z,21.45
2022-08-05T12:33:50.743Z,20.88
2022-08-05T12:38:58.236Z,20.47
2022-08-05T12:44:14.549Z,20.55
2022-08-05T12:50:03.253Z,19.83
2022-08-05T12:55:26.261Z,20.11
2022-08-05T13:02:02.844Z,19.72
2022-08-05T13:05:56.614Z,18.57
2022-08-05T13:11:04.381Z,18.96
2022-08-05T13:16:15.366Z,19.43
2022-08-05T13:21:20.460Z,18.91
2022-08-05T13:26:29.825Z,19.12
2022-08-05T13:31:34.103Z,19.06
2022-08-05T13:36:55.958Z,19.34
2022-08-05T13:41:58.791Z,19.36
2022-08-05T13:47:08.587Z,19.23
2022-08-05T13:52:29.085Z,18.57
2022-08-05T13:57:48.960Z,19.05
2022-08-05T14:02:57.332Z,18.56
2022-08-05T14:08:05.762Z,19.06
2022-08-05T14:13:15.418Z,18.87
2022-08-05T14:18:23.418Z,18.62
2022-08-05T14:23:29.668Z,18.42
2022-08-05T14:28:52.183Z,19.10
2022-08-05T14:34:00.480Z,18.51
2022-08-05T14:39:05.796Z,18.26
2022-08-05T14:44:20.687Z,18.32
2022-08-05T14:49:24.668Z,18.30
2022-08-05T14:54:52.806Z,18.87
2022-08-05T14:59:56.240Z,19.34
2022-08-05T15:04:59.345Z,18.89
2022-08-05T15:10:03.803Z,18.97
2022-08-05T15:15:13.669Z,19.19
2022-08-05T15:20:24.716Z,18.91
2022-08-05T15:25:51.424Z,19.14
2022-08-05T15:30:52.969Z,19.48
2022-08-05T15:35:56.359Z,18.63
2022-08-05T15:41:22.191Z,18.79
2022-08-05T15:46:24.925Z,18.74
2022-08-05T15:52:09.738Z,18.83
2022-08-05T15:56:52.572Z,18.71
2022-08-05T16:01:55.425Z,18.64
2022-08-05T16:07:02.589Z,18.57
2022-08-05T16:12:06.246Z,18.93
2022-08-05T16:17:09.666Z,18.94
2022-08-05T16:22:15.578Z,18.60
2022-08-05T16:27:18.823Z,19.32
2022-08-05T16:32:28.748Z,19.27
2022-08-05T16:38:02.845Z,19.57
2022-08-05T16:42:57.644Z,19.59
2022-08-05T16:48:02.912Z,19.78
2022-08-05T16:53:12.264Z,20.12
2022-08-05T16:58:25.750Z,20.26
2022-08-05T17:03:29.241Z,21.30
2022-08-05T17:08:52.461Z,21.87
2022-08-05T17:14:05.199Z,22.37
2022-08-05T17:19:09.548Z,23.39
2022-08-05T17:24:31.263Z,24.05
2022-08-05T17:29:40.965Z,24.83
2022-08-05T17:34:47.647Z,25.57
2022-08-05T17:39:51.214Z,26.37
2022-08-05T17:44:58.931Z,27.09
2022-08-05T17:50:10.189Z,27.71
2022-08-05T17:55:13.974Z,28.30
2022-08-05T18:00:18.723Z,28.69
2022-08-05T18:05:21.968Z,28.94
2022-08-05T18:10:24.803Z,29.37
2022-08-05T18:15:34.155Z,29.67
2022-08-05T18:20:38.012Z,30.58
2022-08-05T18:25:45.193Z,31.34
2022-08-05T18:30:51.137Z,31.32
2022-08-05T18:36:04.894Z,31.96
2022-08-05T18:41:57.940Z,31.13
2022-08-05T18:46:31.601Z,31.27
2022-08-05T18:52:06.401Z,32.23
2022-08-05T18:57:15.183Z,32.36
2022-08-05T19:02:28.671Z,32.92
2022-08-05T19:07:45.394Z,33.30
2022-08-05T19:12:50.244Z,33.85
2022-08-05T19:18:08.875Z,34.64
2022-08-05T19:24:04.520Z,35.49
2022-08-05T19:28:37.528Z,35.01
2022-08-05T19:33:48.323Z,35.61
2022-08-05T19:39:00.841Z,35.71
2022-08-05T19:44:13.833Z,36.12
2022-08-05T19:49:17.885Z,36.22
2022-08-05T19:54:25.606Z,36.64
2022-08-05T19:59:56.487Z,37.03
2022-08-05T20:04:58.754Z,36.62
2022-08-05T20:10:11.711Z,37.03
2022-08-05T20:15:23.330Z,36.92
2022-08-05T20:20:46.628Z,37.54
2022-08-05T20:25:52.201Z,37.84
2022-08-05T20:30:55.360Z,37.92
2022-08-05T20:35:58.362Z,38.02
2022-08-05T20:41:01.287Z,38.33
2022-08-05T20:46:24.859Z,38.79
2022-08-05T20:51:28.181Z,39.13
2022-08-05T20:56:34.243Z,39.43
2022-08-05T21:01:45.255Z,39.84
2022-08-05T21:06:48.248Z,40.27
2022-08-05T21:12:09.427Z,40.15
2022-08-05T21:17:14.145Z,40.40
2022-08-05T21:22:21.893Z,40.70
2022-08-05T21:27:27.452Z,41.18
2022-08-05T21:32:30.587Z,41.76
2022-08-05T21:37:35.053Z,41.78
2022-08-05T21:42:45.275Z,41.81
2022-08-05T21:47:56.272Z,42.46
2022-08-05T21:53:08.334Z,42.44
2022-08-05T21:58:20.594Z,42.87
2022-08-05T22:03:49.118Z,42.94
2022-08-05T22:08:55.706Z,42.77
2022-08-05T22:14:05.862Z,42.71
2022-08-05T22:19:57.176Z,42.71
2022-08-05T22:25:03.978Z,43.00
2022-08-05T22:30:14.217Z,43.18
2022-08-05T22:35:17.140Z,43.62
2022-08-05T22:40:20.525Z,43.72
2022-08-05T22:45:26.345Z,44.49
2022-08-05T22:50:29.677Z,44.58
2022-08-05T22:55:37.137Z,44.65
2022-08-05T23:00:57.082Z,44.78
2022-08-05T23:06:00.220Z,45.36
2022-08-05T23:11:04.210Z,45.76
2022-08-05T23:16:07.140Z,45.96
2022-08-05T23:21:11.320Z,46.46
2022-08-05T23:26:20.009Z,46.93
2022-08-05T23:31:24.581Z,47.05
2022-08-05T23:36:28.471Z,47.28
2022-08-05T23:41:48.368Z,46.83
2022-08-05T23:46:51.618Z,47.86
2022-08-05T23:52:13.334Z,47.73
2022-08-05T23:57:19.868Z,47.32
